Time;durP1;ratioP1;P1;durP2;ratioP2;P2;SDS_P1;SDS_P2;PMS_P1;PMS_P2;Temp;Humidity;BMP_temperature;BMP_pressure;BME280_temperature;BME280_humidity;BME280_pressure;Samples;Min_cycle;Max_cycle;Signal;HPM_P1;HPM_P2
2024/01/14 00:00:14;;;;;;;3.20;2.92;;;20.90;67.30;;;;;;5014888;28;20594;-81
2024/01/14 00:02:42;;;;;;;2.93;2.73;;;20.90;67.50;;;;;;5016748;28;20226;-79
2024/01/14 00:05:09;;;;;;;4.47;3.85;;;20.90;67.40;;;;;;5011893;28;20464;-80
2024/01/14 00:07:36;;;;;;;3.13;2.83;;;20.90;67.40;;;;;;5019139;28;20217;-79
2024/01/14 00:10:03;;;;;;;3.10;2.90;;;20.90;67.50;;;;;;5020015;28;20216;-79
2024/01/14 00:12:30;;;;;;;3.45;3.15;;;20.90;67.50;;;;;;5014587;28;20221;-81
2024/01/14 00:14:57;;;;;;;3.63;3.33;;;20.90;67.50;;;;;;5018873;28;20726;-80
2024/01/14 00:17:23;;;;;;;3.15;2.90;;;20.90;67.40;;;;;;5012831;28;20214;-80
2024/01/14 00:19:51;;;;;;;3.70;3.40;;;20.90;67.60;;;;;;5011482;28;20199;-80
2024/01/14 00:22:19;;;;;;;4.30;3.92;;;20.90;67.50;;;;;;5010528;28;20214;-80
2024/01/14 00:24:45;;;;;;;3.35;3.05;;;20.90;67.50;;;;;;5015573;28;20446;-79
2024/01/14 00:27:13;;;;;;;4.28;3.90;;;20.90;67.40;;;;;;5014900;28;20211;-80
2024/01/14 00:29:39;;;;;;;3.85;3.55;;;20.90;67.30;;;;;;5008761;28;20203;-80
2024/01/14 00:32:07;;;;;;;4.38;3.65;;;21.00;67.40;;;;;;5007961;28;20206;-80
2024/01/14 00:34:34;;;;;;;4.80;3.47;;;21.00;67.40;;;;;;5013676;28;20285;-80
2024/01/14 00:37:02;;;;;;;4.10;3.80;;;21.00;67.30;;;;;;5011530;28;20199;-80
2024/01/14 00:39:29;;;;;;;4.32;3.92;;;21.00;67.20;;;;;;5012602;28;20202;-79
2024/01/14 00:41:56;;;;;;;4.13;3.75;;;21.00;67.10;;;;;;5010607;28;20825;-80
2024/01/14 00:44:22;;;;;;;4.27;3.77;;;21.00;67.10;;;;;;5010620;28;20204;-81
2024/01/14 00:46:49;;;;;;;6.88;4.30;;;21.00;67.10;;;;;;5011082;28;20478;-80
2024/01/14 00:49:16;;;;;;;3.65;3.35;;;21.00;67.10;;;;;;5012705;28;20195;-80
2024/01/14 00:51:43;;;;;;;3.67;3.17;;;21.00;67.00;;;;;;5013871;28;22751;-79
2024/01/14 00:54:11;;;;;;;4.13;3.73;;;21.00;67.00;;;;;;5010636;28;20218;-80
2024/01/14 00:56:37;;;;;;;4.67;4.20;;;21.00;67.00;;;;;;5015191;28;20458;-80
2024/01/14 00:59:04;;;;;;;3.50;3.30;;;21.00;66.90;;;;;;5015995;28;20461;-79
2024/01/14 01:01:31;;;;;;;4.25;3.88;;;21.00;66.80;;;;;;5014567;28;20208;-79
2024/01/14 01:03:58;;;;;;;4.80;4.32;;;21.00;66.80;;;;;;5009919;28;20206;-79
2024/01/14 01:06:25;;;;;;;4.10;3.80;;;21.00;66.80;;;;;;5012184;28;21124;-79
2024/01/14 01:08:52;;;;;;;4.68;4.22;;;21.00;66.70;;;;;;5013833;28;20203;-80
2024/01/14 01:11:20;;;;;;;3.80;3.50;;;21.00;66.70;;;;;;5013307;28;20210;-80
2024/01/14 01:13:46;;;;;;;3.75;3.45;;;21.00;66.70;;;;;;5017101;28;20194;-79
2024/01/14 01:16:13;;;;;;;3.72;3.30;;;21.00;66.60;;;;;;5014996;28;20203;-79
2024/01/14 01:18:40;;;;;;;5.20;4.15;;;21.00;66.60;;;;;;5013467;28;20196;-79
2024/01/14 01:21:07;;;;;;;3.97;3.67;;;21.00;66.60;;;;;;5016002;28;20231;-79
2024/01/14 01:23:33;;;;;;;3.97;3.67;;;21.00;66.60;;;;;;5011218;28;20218;-79
2024/01/14 01:26:00;;;;;;;4.28;3.92;;;21.00;66.50;;;;;;5010806;28;20211;-81
2024/01/14 01:28:28;;;;;;;4.90;4.40;;;21.00;66.50;;;;;;5007420;28;20219;-79
2024/01/14 01:30:55;;;;;;;3.20;2.90;;;21.00;66.40;;;;;;5013496;28;20200;-80
2024/01/14 01:33:22;;;;;;;4.80;4.40;;;21.00;66.40;;;;;;5006848;28;20600;-80
2024/01/14 01:35:49;;;;;;;4.30;3.70;;;21.00;66.40;;;;;;5012736;28;20199;-80
2024/01/14 01:38:16;;;;;;;4.30;3.90;;;21.00;66.40;;;;;;5013803;28;21296;-80
2024/01/14 01:40:43;;;;;;;4.47;4.03;;;21.00;66.30;;;;;;5013275;28;20218;-80
2024/01/14 01:43:09;;;;;;;4.83;4.10;;;21.00;66.20;;;;;;5009153;28;20686;-80
2024/01/14 01:45:38;;;;;;;4.20;3.85;;;21.00;66.20;;;;;;5013694;28;20461;-80
2024/01/14 01:48:05;;;;;;;4.57;4.20;;;20.90;66.10;;;;;;5012595;28;20267;-80
2024/01/14 01:50:34;;;;;;;3.80;3.38;;;21.00;66.20;;;;;;5014876;28;20476;-79
2024/01/14 01:53:01;;;;;;;4.50;4.10;;;20.90;66.00;;;;;;5013303;28;20218;-80
2024/01/14 01:55:29;;;;;;;3.92;3.50;;;20.90;66.00;;;;;;5013788;28;20199;-80
2024/01/14 01:57:56;;;;;;;4.15;3.78;;;20.90;66.00;;;;;;5015241;28;21187;-80
2024/01/14 02:00:23;;;;;;;4.40;3.40;;;20.90;66.00;;;;;;5013314;28;20206;-79
2024/01/14 02:02:51;;;;;;;4.15;3.85;;;20.90;65.90;;;;;;5014362;28;20781;-79
2024/01/14 02:05:19;;;;;;;4.30;4.00;;;20.90;66.70;;;;;;5016528;28;20195;-79
2024/01/14 02:07:46;;;;;;;4.28;3.90;;;20.90;65.90;;;;;;5012010;28;20212;-80
2024/01/14 02:10:13;;;;;;;3.83;3.53;;;20.90;65.90;;;;;;5014623;28;20742;-81
2024/01/14 02:12:40;;;;;;;3.43;3.13;;;20.90;65.80;;;;;;5017610;28;20289;-81
2024/01/14 02:15:07;;;;;;;6.30;3.90;;;20.90;65.80;;;;;;5016028;28;20691;-79
2024/01/14 02:17:34;;;;;;;4.22;3.65;;;20.90;65.70;;;;;;5018095;28;20626;-80
2024/01/14 02:20:02;;;;;;;4.00;3.70;;;20.90;65.70;;;;;;5011811;28;20203;-80
2024/01/14 02:22:30;;;;;;;4.25;3.85;;;20.90;65.70;;;;;;5008766;28;20202;-80
2024/01/14 02:24:59;;;;;;;4.85;4.40;;;20.90;65.70;;;;;;5014203;28;20206;-80
2024/01/14 02:27:25;;;;;;;4.72;4.32;;;20.90;65.70;;;;;;5010239;28;20226;-79
2024/01/14 02:29:54;;;;;;;4.45;4.05;;;20.90;65.60;;;;;;5012517;28;20293;-80
2024/01/14 02:32:21;;;;;;;4.28;3.88;;;20.90;65.60;;;;;;5010655;28;20202;-80
2024/01/14 02:34:48;;;;;;;4.90;4.40;;;20.90;65.60;;;;;;5013661;28;20202;-80
2024/01/14 02:37:15;;;;;;;4.80;4.40;;;20.90;65.60;;;;;;5012620;28;20281;-80
2024/01/14 02:39:42;;;;;;;4.35;3.95;;;20.90;65.60;;;;;;5010131;28;20191;-78
2024/01/14 02:42:10;;;;;;;3.80;3.50;;;20.90;65.60;;;;;;5013870;28;20210;-78
2024/01/14 02:44:37;;;;;;;5.15;4.20;;;20.90;65.50;;;;;;5012784;28;20203;-78
2024/01/14 02:47:04;;;;;;;4.32;4.03;;;20.90;65.60;;;;;;5005555;28;20205;-80
2024/01/14 02:49:30;;;;;;;4.30;3.95;;;20.90;65.50;;;;;;5014023;28;20202;-79
2024/01/14 02:51:57;;;;;;;5.10;4.70;;;20.90;65.50;;;;;;5015824;28;20199;-79
2024/01/14 02:54:24;;;;;;;3.60;3.30;;;20.90;65.50;;;;;;5015324;28;20208;-79
2024/01/14 02:56:51;;;;;;;4.07;3.72;;;20.90;65.50;;;;;;5012216;28;20219;-80
2024/01/14 02:59:19;;;;;;;4.35;4.00;;;20.90;65.40;;;;;;5012626;28;20208;-79
2024/01/14 03:01:47;;;;;;;4.40;4.00;;;20.90;65.40;;;;;;5014307;28;20211;-80
2024/01/14 03:04:13;;;;;;;4.23;3.93;;;20.90;65.40;;;;;;5011718;28;20203;-80
2024/01/14 03:06:40;;;;;;;4.10;3.80;;;20.90;65.40;;;;;;5015768;28;20459;-80
2024/01/14 03:09:07;;;;;;;3.65;3.35;;;20.90;65.40;;;;;;5010722;28;20239;-79
2024/01/14 03:11:34;;;;;;;3.97;3.67;;;20.90;65.30;;;;;;5017861;28;20199;-79
2024/01/14 03:14:01;;;;;;;4.70;4.30;;;20.90;65.30;;;;;;5013088;28;20199;-79
2024/01/14 03:16:29;;;;;;;4.40;4.10;;;20.90;65.30;;;;;;5011550;28;20196;-79
2024/01/14 03:18:56;;;;;;;3.83;3.50;;;20.90;65.30;;;;;;5012625;28;20205;-78
2024/01/14 03:21:23;;;;;;;3.97;3.67;;;20.90;65.30;;;;;;5013061;28;20762;-79
2024/01/14 03:23:50;;;;;;;3.92;3.63;;;20.90;65.30;;;;;;5012565;28;21350;-79
2024/01/14 03:26:17;;;;;;;4.50;4.10;;;20.90;65.30;;;;;;5010199;28;20799;-79
2024/01/14 03:28:44;;;;;;;4.13;3.78;;;20.90;65.30;;;;;;5007734;28;20231;-79
2024/01/14 03:31:15;;;;;;;4.03;3.73;;;20.90;65.30;;;;;;5011949;28;20203;-79
2024/01/14 03:33:43;;;;;;;5.03;3.83;;;20.90;65.30;;;;;;5009050;28;20466;-80
2024/01/14 03:36:13;;;;;;;4.32;3.92;;;20.90;65.20;;;;;;5004846;28;20469;-80
2024/01/14 03:38:39;;;;;;;4.43;4.13;;;20.90;65.10;;;;;;5010782;28;20203;-79
2024/01/14 03:41:06;;;;;;;4.47;4.10;;;20.90;65.10;;;;;;5009759;28;20210;-79
2024/01/14 03:43:33;;;;;;;4.63;4.13;;;20.90;65.10;;;;;;5015728;28;20218;-79
2024/01/14 03:45:59;;;;;;;4.72;4.32;;;20.80;65.00;;;;;;5015673;28;20225;-79
2024/01/14 03:48:26;;;;;;;4.63;4.22;;;20.90;65.10;;;;;;5017044;28;20217;-79
2024/01/14 03:50:54;;;;;;;4.07;3.78;;;20.80;65.00;;;;;;5013182;28;20207;-80
2024/01/14 03:53:21;;;;;;;4.00;3.70;;;20.90;65.10;;;;;;5011634;28;22146;-80
2024/01/14 03:55:48;;;;;;;4.05;3.65;;;20.90;65.00;;;;;;5013511;28;20202;-80
2024/01/14 03:58:14;;;;;;;4.07;3.67;;;20.80;65.00;;;;;;5013648;28;20211;-79
2024/01/14 04:00:41;;;;;;;4.03;3.65;;;20.80;64.90;;;;;;5011751;28;21067;-80
2024/01/14 04:03:08;;;;;;;3.85;3.47;;;20.80;64.90;;;;;;5012328;28;20200;-80
2024/01/14 04:05:35;;;;;;;4.20;3.90;;;20.80;64.90;;;;;;5013262;28;20200;-80
2024/01/14 04:08:03;;;;;;;4.97;4.57;;;20.80;64.90;;;;;;5014711;28;20211;-79
2024/01/14 04:10:30;;;;;;;4.40;4.10;;;20.80;64.90;;;;;;5016122;28;20195;-80
2024/01/14 04:12:57;;;;;;;4.00;3.70;;;20.80;64.90;;;;;;5011094;28;20210;-79
2024/01/14 04:15:23;;;;;;;3.60;3.30;;;20.80;64.80;;;;;;5014385;28;20844;-80
2024/01/14 04:17:50;;;;;;;3.90;3.60;;;20.80;64.80;;;;;;5015224;28;20220;-79
2024/01/14 04:20:17;;;;;;;4.57;4.10;;;20.80;64.80;;;;;;5010919;28;20738;-80
2024/01/14 04:22:44;;;;;;;4.93;4.00;;;20.80;64.70;;;;;;5017605;28;20215;-80
2024/01/14 04:25:12;;;;;;;4.30;3.90;;;20.80;64.80;;;;;;5014540;28;20203;-79
2024/01/14 04:27:38;;;;;;;4.35;3.90;;;20.80;64.70;;;;;;5016088;28;20196;-79
2024/01/14 04:30:07;;;;;;;3.72;3.42;;;20.80;64.70;;;;;;5014355;28;20874;-80
2024/01/14 04:32:34;;;;;;;4.57;4.18;;;20.80;64.60;;;;;;5015194;28;20210;-79
2024/01/14 04:35:01;;;;;;;3.92;3.63;;;20.80;64.70;;;;;;5015509;28;20203;-79
2024/01/14 04:37:28;;;;;;;3.85;3.55;;;20.80;64.60;;;;;;5015447;28;22389;-79
2024/01/14 04:39:55;;;;;;;3.30;3.00;;;20.80;64.60;;;;;;5013812;28;21200;-80
2024/01/14 04:42:23;;;;;;;3.75;3.45;;;20.80;65.40;;;;;;5012635;28;20801;-80
2024/01/14 04:44:50;;;;;;;3.92;3.63;;;20.80;64.50;;;;;;5014036;28;20207;-80
2024/01/14 04:47:17;;;;;;;4.75;3.75;;;20.80;64.60;;;;;;5014704;28;21385;-80
2024/01/14 04:49:43;;;;;;;4.60;4.20;;;20.80;64.50;;;;;;5016556;28;20215;-80
2024/01/14 04:52:10;;;;;;;4.63;4.22;;;20.80;64.60;;;;;;5014109;28;20985;-80
2024/01/14 04:54:37;;;;;;;4.18;3.88;;;20.80;64.50;;;;;;5013483;28;20207;-80
2024/01/14 04:57:04;;;;;;;3.95;3.65;;;20.80;64.50;;;;;;5021501;28;20214;-79
2024/01/14 04:59:32;;;;;;;4.18;3.78;;;20.80;64.50;;;;;;5019347;28;20199;-79
2024/01/14 05:01:58;;;;;;;4.05;3.65;;;20.80;64.50;;;;;;5012628;28;20200;-79
2024/01/14 05:04:25;;;;;;;4.70;4.10;;;20.80;64.40;;;;;;5014840;28;20210;-79
2024/01/14 05:06:52;;;;;;;4.22;3.88;;;20.80;64.40;;;;;;5019874;28;20202;-80
2024/01/14 05:09:20;;;;;;;4.07;3.78;;;20.80;64.30;;;;;;5012612;28;20215;-79
2024/01/14 05:11:47;;;;;;;3.97;3.67;;;20.80;64.30;;;;;;5014594;28;20215;-79
2024/01/14 05:14:14;;;;;;;3.95;3.55;;;20.80;64.30;;;;;;5013366;28;20250;-80
2024/01/14 05:16:42;;;;;;;4.57;4.18;;;20.80;64.30;;;;;;5018104;28;20210;-79
2024/01/14 05:19:09;;;;;;;3.58;3.20;;;20.80;64.30;;;;;;5017830;28;20235;-79
2024/01/14 05:21:35;;;;;;;4.13;3.83;;;20.80;64.20;;;;;;5015002;28;20200;-79
2024/01/14 05:24:02;;;;;;;4.03;3.63;;;20.80;64.20;;;;;;5019382;28;20203;-79
2024/01/14 05:26:29;;;;;;;4.50;4.10;;;20.80;64.20;;;;;;5018234;28;20206;-80
2024/01/14 05:28:59;;;;;;;4.30;3.90;;;20.80;64.20;;;;;;5017711;28;20219;-79
2024/01/14 05:31:26;;;;;;;4.25;3.75;;;20.80;64.20;;;;;;5008859;28;20286;-78
2024/01/14 05:33:54;;;;;;;5.72;3.03;;;20.80;64.20;;;;;;4991878;28;20297;-79
2024/01/14 05:36:21;;;;;;;4.20;3.90;;;20.80;64.00;;;;;;5012942;28;20207;-79
2024/01/14 05:38:47;;;;;;;4.43;4.03;;;20.80;64.00;;;;;;5016244;28;20610;-78
2024/01/14 05:41:14;;;;;;;4.22;3.85;;;20.80;64.00;;;;;;5013869;28;20199;-78
2024/01/14 05:43:41;;;;;;;4.38;3.97;;;20.80;64.00;;;;;;5011829;28;20204;-78
2024/01/14 05:46:08;;;;;;;3.80;3.50;;;20.80;64.00;;;;;;5010816;28;20930;-78
2024/01/14 05:48:34;;;;;;;4.03;3.73;;;20.80;63.90;;;;;;5010920;28;20214;-79
2024/01/14 05:51:02;;;;;;;3.80;3.50;;;20.80;64.00;;;;;;5009288;28;21261;-78
2024/01/14 05:53:29;;;;;;;4.15;3.85;;;20.70;63.80;;;;;;5007063;28;20339;-78
2024/01/14 05:55:57;;;;;;;4.60;4.20;;;20.80;63.90;;;;;;5008873;28;20226;-78
2024/01/14 05:58:24;;;;;;;3.50;3.20;;;20.80;63.80;;;;;;5007796;28;20755;-79
2024/01/14 06:00:51;;;;;;;4.00;3.70;;;20.80;63.90;;;;;;5010718;28;20205;-78
2024/01/14 06:03:17;;;;;;;4.40;4.05;;;20.80;63.80;;;;;;5012364;28;20508;-80
2024/01/14 06:05:45;;;;;;;4.53;4.13;;;20.70;63.70;;;;;;5009577;28;20574;-79
2024/01/14 06:08:13;;;;;;;4.28;3.88;;;20.70;63.70;;;;;;5014193;28;20336;-78
2024/01/14 06:10:39;;;;;;;4.13;3.72;;;20.70;63.80;;;;;;5013610;28;20207;-78
2024/01/14 06:13:06;;;;;;;4.93;4.53;;;20.70;63.70;;;;;;5008107;28;20207;-79
2024/01/14 06:15:33;;;;;;;4.55;4.05;;;20.70;64.10;;;;;;5011777;28;20204;-79
2024/01/14 06:18:00;;;;;;;4.38;4.05;;;20.80;63.80;;;;;;5013744;28;20227;-78
2024/01/14 06:20:27;;;;;;;4.40;3.97;;;20.70;63.90;;;;;;5015698;28;20207;-80
2024/01/14 06:22:53;;;;;;;4.00;3.63;;;20.70;63.90;;;;;;5010461;28;20338;-81
2024/01/14 06:25:22;;;;;;;4.55;4.15;;;20.70;64.10;;;;;;5011428;28;20205;-81
2024/01/14 06:27:48;;;;;;;4.28;3.88;;;20.70;64.10;;;;;;5018617;28;20206;-80
2024/01/14 06:30:15;;;;;;;3.80;3.50;;;20.70;64.10;;;;;;5015228;28;20223;-81
2024/01/14 06:32:42;;;;;;;3.92;3.63;;;20.70;64.20;;;;;;5012022;28;20203;-81
2024/01/14 06:35:09;;;;;;;4.25;3.55;;;20.70;64.20;;;;;;5016292;28;20195;-80
2024/01/14 06:37:38;;;;;;;3.95;3.65;;;20.70;64.30;;;;;;5017128;28;20207;-80
2024/01/14 06:40:06;;;;;;;4.18;3.85;;;20.70;64.30;;;;;;5018593;28;20191;-81
2024/01/14 06:42:35;;;;;;;4.75;4.20;;;20.70;64.30;;;;;;5017027;28;20214;-79
2024/01/14 06:45:02;;;;;;;4.65;4.25;;;20.70;65.10;;;;;;5015129;28;20214;-80
2024/01/14 06:47:28;;;;;;;3.83;3.53;;;20.70;64.40;;;;;;5018913;28;20239;-80
2024/01/14 06:49:55;;;;;;;4.55;3.85;;;20.70;64.40;;;;;;5022046;28;20215;-81
2024/01/14 06:52:23;;;;;;;3.10;2.80;;;20.70;64.50;;;;;;5015451;28;20242;-80
2024/01/14 06:54:50;;;;;;;4.07;3.78;;;20.70;64.50;;;;;;5021569;28;20199;-80
2024/01/14 06:57:16;;;;;;;2.95;2.67;;;20.70;64.50;;;;;;5015324;28;20296;-80
2024/01/14 06:59:45;;;;;;;4.35;3.95;;;20.70;64.50;;;;;;5014542;28;20215;-80
2024/01/14 07:02:12;;;;;;;3.55;3.25;;;20.70;64.50;;;;;;5012742;28;20389;-80
2024/01/14 07:04:39;;;;;;;4.30;4.00;;;20.70;64.50;;;;;;5015634;28;20318;-80
2024/01/14 07:07:05;;;;;;;4.43;4.03;;;20.70;64.50;;;;;;5013823;28;31318;-80
2024/01/14 07:09:33;;;;;;;3.58;3.28;;;20.70;64.60;;;;;;5012005;28;20482;-80
2024/01/14 07:12:00;;;;;;;3.50;3.20;;;20.70;64.50;;;;;;5014866;28;20207;-80
2024/01/14 07:14:27;;;;;;;4.00;3.70;;;20.70;64.60;;;;;;5014035;28;20214;-80
2024/01/14 07:16:56;;;;;;;3.97;3.30;;;20.70;64.50;;;;;;5013382;28;20201;-80
2024/01/14 07:19:22;;;;;;;3.80;3.50;;;20.70;64.50;;;;;;5013714;28;20276;-79
2024/01/14 07:21:49;;;;;;;3.63;3.33;;;20.70;64.60;;;;;;5013952;28;20465;-80
2024/01/14 07:24:16;;;;;;;3.65;3.35;;;20.60;64.60;;;;;;5012699;28;20230;-80
2024/01/14 07:26:43;;;;;;;3.88;3.58;;;20.60;64.60;;;;;;5010741;28;20213;-80
2024/01/14 07:29:10;;;;;;;4.30;3.90;;;20.60;64.70;;;;;;5008149;28;20309;-81
2024/01/14 07:31:36;;;;;;;4.28;3.88;;;20.60;64.70;;;;;;5009183;28;20219;-80
2024/01/14 07:34:04;;;;;;;3.20;3.00;;;20.60;64.70;;;;;;5011450;28;20270;-80
2024/01/14 07:36:31;;;;;;;4.05;3.75;;;20.60;64.70;;;;;;5008308;28;22044;-81
2024/01/14 07:38:59;;;;;;;4.22;3.83;;;20.70;65.00;;;;;;5010757;28;20200;-80
2024/01/14 07:41:26;;;;;;;3.40;3.10;;;20.70;64.90;;;;;;5013100;28;20293;-80
2024/01/14 07:43:53;;;;;;;4.10;3.70;;;20.70;64.90;;;;;;5007429;28;20191;-81
2024/01/14 07:46:20;;;;;;;3.60;3.30;;;20.70;64.90;;;;;;5020958;28;21101;-81
2024/01/14 07:48:47;;;;;;;3.65;3.33;;;20.70;64.90;;;;;;5017387;28;20247;-81
2024/01/14 07:51:15;;;;;;;3.40;3.10;;;20.70;64.90;;;;;;5015680;28;20262;-80
2024/01/14 07:53:42;;;;;;;3.72;3.40;;;20.70;64.90;;;;;;5010640;28;20195;-80
2024/01/14 07:56:09;;;;;;;3.60;3.30;;;20.70;64.90;;;;;;5017452;28;20207;-80
2024/01/14 07:58:36;;;;;;;3.88;3.58;;;20.70;64.90;;;;;;5013959;28;21142;-80
2024/01/14 08:01:02;;;;;;;3.80;3.50;;;20.70;64.80;;;;;;5011806;28;20200;-80
2024/01/14 08:03:29;;;;;;;3.85;3.00;;;20.70;64.80;;;;;;5015684;28;22507;-80
2024/01/14 08:05:56;;;;;;;3.10;2.83;;;20.70;64.80;;;;;;5010712;28;20236;-82
2024/01/14 08:08:24;;;;;;;4.13;3.80;;;20.70;64.80;;;;;;5010352;28;20204;-81
2024/01/14 08:10:51;;;;;;;3.60;3.40;;;20.70;64.80;;;;;;5010528;28;20223;-80
2024/01/14 08:13:18;;;;;;;3.72;3.45;;;20.70;64.80;;;;;;5007919;28;20210;-81
2024/01/14 08:15:45;;;;;;;3.92;3.63;;;20.70;64.70;;;;;;5008290;28;20207;-80
2024/01/14 08:18:12;;;;;;;3.45;3.15;;;20.70;64.80;;;;;;5013606;28;20237;-80
2024/01/14 08:20:38;;;;;;;3.60;3.30;;;20.70;64.70;;;;;;5008517;28;20333;-81
2024/01/14 08:23:05;;;;;;;3.13;2.90;;;20.60;64.60;;;;;;5008920;28;20224;-81
2024/01/14 08:25:33;;;;;;;4.18;3.78;;;20.70;64.80;;;;;;5009033;28;20208;-80
2024/01/14 08:28:00;;;;;;;4.15;3.80;;;20.70;64.80;;;;;;5008603;28;20211;-81
2024/01/14 08:30:27;;;;;;;3.60;3.30;;;20.70;64.80;;;;;;5009320;28;20230;-81
2024/01/14 08:32:54;;;;;;;3.10;2.60;;;20.70;64.80;;;;;;5005711;28;20210;-81
2024/01/14 08:35:23;;;;;;;3.00;2.80;;;20.70;64.80;;;;;;5016219;28;22435;-80
2024/01/14 08:37:50;;;;;;;4.50;3.63;;;20.70;64.80;;;;;;5017216;28;20826;-81
2024/01/14 08:40:17;;;;;;;2.97;2.78;;;20.70;64.80;;;;;;5017390;28;20191;-80
2024/01/14 08:42:45;;;;;;;3.28;2.90;;;20.70;64.80;;;;;;5016114;28;20208;-81
2024/01/14 08:45:12;;;;;;;3.33;3.00;;;20.70;64.80;;;;;;5005990;28;20225;-81
2024/01/14 08:47:39;;;;;;;3.15;2.85;;;20.70;64.80;;;;;;5012154;28;20207;-80
2024/01/14 08:50:09;;;;;;;3.75;3.40;;;20.70;64.80;;;;;;5013768;28;20703;-81
2024/01/14 08:52:36;;;;;;;3.30;3.08;;;20.70;64.80;;;;;;5015608;28;22648;-81
2024/01/14 08:55:03;;;;;;;3.97;3.58;;;20.70;64.80;;;;;;5011343;28;20208;-82
2024/01/14 08:57:30;;;;;;;3.85;3.55;;;20.70;65.00;;;;;;5014994;28;20203;-81
2024/01/14 08:59:58;;;;;;;3.30;3.00;;;20.70;65.00;;;;;;5014201;28;20204;-81
2024/01/14 09:02:26;;;;;;;4.28;3.88;;;20.70;65.00;;;;;;5011389;28;20945;-83
2024/01/14 09:04:52;;;;;;;2.90;2.70;;;20.70;65.10;;;;;;5018571;28;20808;-82
2024/01/14 09:07:19;;;;;;;4.32;3.92;;;20.70;65.10;;;;;;5013783;28;20582;-79
2024/01/14 09:09:46;;;;;;;3.47;3.17;;;20.70;65.90;;;;;;5014249;28;20223;-78
2024/01/14 09:12:13;;;;;;;3.80;3.50;;;20.70;65.10;;;;;;5010890;28;20204;-80
2024/01/14 09:14:42;;;;;;;2.95;2.75;;;20.70;65.30;;;;;;5017976;28;20207;-82
2024/01/14 09:17:11;;;;;;;3.40;3.08;;;20.70;65.30;;;;;;5011391;28;20204;-77
2024/01/14 09:19:38;;;;;;;3.08;2.78;;;20.70;65.30;;;;;;5013476;28;20201;-78
2024/01/14 09:22:04;;;;;;;3.50;3.20;;;20.70;65.30;;;;;;5016293;28;23706;-79
2024/01/14 09:24:31;;;;;;;3.42;3.15;;;20.80;65.40;;;;;;5017414;28;20192;-84
2024/01/14 09:26:58;;;;;;;4.28;3.88;;;20.70;65.30;;;;;;5021897;28;20217;-83
2024/01/14 09:29:25;;;;;;;3.50;3.22;;;20.70;66.40;;;;;;5019411;28;20227;-82
2024/01/14 09:31:52;;;;;;;3.90;3.60;;;20.70;65.40;;;;;;5016193;28;20203;-85
2024/01/14 09:34:19;;;;;;;4.00;3.70;;;20.70;65.80;;;;;;5015293;28;20196;-79
2024/01/14 09:36:46;;;;;;;4.22;3.83;;;20.70;66.10;;;;;;5015198;28;20203;-76
2024/01/14 09:39:13;;;;;;;3.70;3.47;;;20.70;66.40;;;;;;5013681;28;20214;-75
2024/01/14 09:41:45;;;;;;;4.07;3.15;;;20.70;66.30;;;;;;5014110;28;21220;-77
2024/01/14 09:44:15;;;;;;;5.50;3.20;;;20.70;66.40;;;;;;5013318;28;20555;-80
2024/01/14 09:46:43;;;;;;;4.03;3.72;;;20.70;66.10;;;;;;5012213;28;20214;-79
2024/01/14 09:49:11;;;;;;;4.00;3.65;;;20.70;66.20;;;;;;5015943;28;20215;-78
2024/01/14 09:51:40;;;;;;;2.70;2.50;;;20.70;66.10;;;;;;5013564;28;20196;-76
2024/01/14 09:54:07;;;;;;;3.53;3.22;;;20.70;66.10;;;;;;5010787;28;20195;-78
2024/01/14 09:56:35;;;;;;;3.88;3.58;;;20.70;66.00;;;;;;5013881;28;20203;-77
2024/01/14 09:59:03;;;;;;;4.00;3.38;;;20.70;66.00;;;;;;5009191;28;20212;-78
2024/01/14 10:01:32;;;;;;;2.95;2.75;;;20.70;66.10;;;;;;5011824;28;20666;-79
2024/01/14 10:04:00;;;;;;;3.97;3.60;;;20.70;66.10;;;;;;5015110;28;20210;-78
2024/01/14 10:06:28;;;;;;;3.22;3.03;;;20.70;66.10;;;;;;5014164;28;20547;-80
2024/01/14 10:08:57;;;;;;;3.17;2.90;;;20.70;66.10;;;;;;5012230;28;20198;-79
2024/01/14 10:11:24;;;;;;;3.92;3.63;;;20.70;66.10;;;;;;5012177;28;20364;-77
2024/01/14 10:13:51;;;;;;;3.72;3.42;;;20.70;66.10;;;;;;5012503;28;21020;-79
2024/01/14 10:16:18;;;;;;;3.88;3.58;;;20.70;66.10;;;;;;5011523;28;20769;-78
2024/01/14 10:18:45;;;;;;;3.83;3.53;;;20.70;66.10;;;;;;5012256;28;20195;-78
2024/01/14 10:21:12;;;;;;;3.97;3.67;;;20.70;66.10;;;;;;5010894;28;20208;-79
2024/01/14 10:23:39;;;;;;;3.53;3.22;;;20.70;66.10;;;;;;5011549;28;20219;-79
2024/01/14 10:26:09;;;;;;;3.25;2.95;;;20.70;66.00;;;;;;5013369;28;20207;-80
2024/01/14 10:28:37;;;;;;;3.05;2.80;;;20.80;66.10;;;;;;5015172;28;20211;-78
2024/01/14 10:31:06;;;;;;;3.17;2.97;;;20.70;66.00;;;;;;5006651;28;20919;-78
2024/01/14 10:33:33;;;;;;;3.00;2.75;;;20.70;66.10;;;;;;5011510;28;20663;-80
2024/01/14 10:36:00;;;;;;;3.85;3.10;;;20.80;66.10;;;;;;5010640;28;20203;-78
2024/01/14 10:38:27;;;;;;;3.40;3.20;;;20.70;65.90;;;;;;5010316;28;20195;-80
2024/01/14 10:40:54;;;;;;;3.65;2.72;;;20.70;66.00;;;;;;5013310;28;20201;-81
2024/01/14 10:43:24;;;;;;;2.90;2.70;;;20.70;66.10;;;;;;5013399;28;20215;-80
2024/01/14 10:45:51;;;;;;;2.95;2.75;;;20.70;66.00;;;;;;5014726;28;20207;-79
2024/01/14 10:48:24;;;;;;;3.15;2.85;;;20.70;66.00;;;;;;5012957;28;20210;-81
2024/01/14 10:50:57;;;;;;;14.45;4.38;;;20.70;66.00;;;;;;5012531;28;20208;-82
2024/01/14 10:53:26;;;;;;;5.15;3.20;;;20.70;66.20;;;;;;5010527;28;21714;-81
2024/01/14 10:56:00;;;;;;;7.45;3.00;;;20.80;66.40;;;;;;5011384;28;20207;-80
2024/01/14 10:58:32;;;;;;;4.15;3.42;;;20.70;66.30;;;;;;5011497;28;20332;-80
2024/01/14 11:01:00;;;;;;;3.88;3.58;;;20.70;66.50;;;;;;5011672;28;20207;-81
2024/01/14 11:03:29;;;;;;;4.60;3.33;;;20.70;66.60;;;;;;5013009;28;20338;-81
2024/01/14 11:05:56;;;;;;;3.58;3.28;;;20.80;66.50;;;;;;5013047;28;20245;-82
2024/01/14 11:08:23;;;;;;;4.17;3.50;;;20.70;66.50;;;;;;5013371;28;21331;-80
2024/01/14 11:10:51;;;;;;;4.50;4.10;;;20.70;66.40;;;;;;5014211;28;20580;-81
2024/01/14 11:13:24;;;;;;;3.67;2.70;;;20.70;66.40;;;;;;5012430;28;20198;-82
2024/01/14 11:16:00;;;;;;;3.30;3.00;;;20.70;66.40;;;;;;5013091;28;20205;-81
2024/01/14 11:18:30;;;;;;;3.90;3.47;;;20.70;66.30;;;;;;5012659;28;20191;-81
2024/01/14 11:21:09;;;;;;;4.10;3.75;;;20.70;66.40;;;;;;5012851;28;20675;-81
2024/01/14 11:23:36;;;;;;;3.65;3.35;;;20.70;67.00;;;;;;5009194;28;20211;-81
2024/01/14 11:26:03;;;;;;;12.38;3.80;;;20.70;66.80;;;;;;5014272;28;20194;-80
2024/01/14 11:28:30;;;;;;;6.55;3.95;;;20.70;67.20;;;;;;5008454;28;20203;-81
2024/01/14 11:31:00;;;;;;;4.95;3.70;;;20.70;67.10;;;;;;5015416;28;20468;-83
2024/01/14 11:33:32;;;;;;;7.45;3.58;;;20.70;67.20;;;;;;5019281;28;20286;-86
2024/01/14 11:36:00;;;;;;;8.20;3.78;;;20.70;67.50;;;;;;5021128;28;20224;-85
2024/01/14 11:38:34;;;;;;;19.77;4.45;;;20.70;67.90;;;;;;5020700;28;20228;-84
2024/01/14 11:41:22;;;;;;;7.05;3.83;;;20.70;68.00;;;;;;5018224;28;20266;-88
2024/01/14 11:43:51;;;;;;;10.63;4.60;;;20.70;68.20;;;;;;5025563;28;20204;-83
2024/01/14 11:59:48;;;;;;;5.33;3.80;;;20.70;68.40;;;;;;5959892;22;5774462;-67
2024/01/14 12:02:31;;;;;;;4.88;3.75;;;20.90;68.70;;;;;;6200848;23;20245;-62
2024/01/14 12:05:20;;;;;;;8.32;3.63;;;20.90;68.90;;;;;;6200826;23;20163;-63
2024/01/14 12:07:56;;;;;;;3.95;3.60;;;20.90;69.00;;;;;;6201904;23;20186;-62
2024/01/14 12:10:35;;;;;;;4.95;4.55;;;21.00;69.00;;;;;;6195390;23;20181;-62
2024/01/14 12:13:23;;;;;;;4.45;3.20;;;21.00;69.40;;;;;;6196550;23;20192;-61
2024/01/14 12:16:02;;;;;;;;;;;;;;;;;;;;;
2024/01/14 12:19:10;;;;;;;4.28;3.88;;;21.10;69.50;;;;;;6193195;23;20404;-64
2024/01/14 12:21:46;;;;;;;8.30;3.28;;;21.10;69.50;;;;;;6195456;23;20830;-64
2024/01/14 12:24:30;;;;;;;4.80;3.45;;;21.10;69.50;;;;;;6199900;23;20194;-66
2024/01/14 12:27:12;;;;;;;9.40;3.63;;;21.20;69.80;;;;;;6197978;23;20240;-63
2024/01/14 12:29:42;;;;;;;3.58;3.28;;;21.20;69.80;;;;;;6198451;23;20539;-63
2024/01/14 12:32:19;;;;;;;5.20;3.50;;;21.20;69.60;;;;;;6191555;23;20202;-65
2024/01/14 12:34:51;;;;;;;4.00;3.15;;;21.20;69.70;;;;;;6196078;23;20454;-64
2024/01/14 12:37:28;;;;;;;4.63;4.00;;;21.20;69.80;;;;;;6196100;23;20175;-64
2024/01/14 12:40:00;;;;;;;3.45;3.15;;;21.30;69.80;;;;;;6196687;23;20162;-65
2024/01/14 12:42:38;;;;;;;3.53;3.22;;;21.30;69.70;;;;;;6196123;23;20170;-61
2024/01/14 12:45:10;;;;;;;4.47;3.28;;;21.30;69.80;;;;;;6196836;23;20173;-62
2024/01/14 12:48:05;;;;;;;3.40;3.10;;;21.30;69.80;;;;;;6194190;23;20191;-62
2024/01/14 12:50:39;;;;;;;4.57;3.87;;;21.30;69.80;;;;;;6193014;23;20397;-67
2024/01/14 12:53:13;;;;;;;4.53;3.60;;;21.30;69.80;;;;;;6197843;23;20397;-66
2024/01/14 12:55:41;;;;;;;5.15;2.50;;;21.30;69.80;;;;;;6196224;23;20386;-66
2024/01/14 12:58:32;;;;;;;3.80;3.43;;;21.40;69.90;;;;;;6197599;23;20710;-65
2024/01/14 13:01:10;;;;;;;4.10;3.47;;;21.40;69.80;;;;;;6181240;23;20527;-62
2024/01/14 13:03:45;;;;;;;3.23;3.03;;;21.40;69.90;;;;;;6189578;23;21590;-66
2024/01/14 13:06:14;;;;;;;3.50;3.20;;;21.40;69.80;;;;;;6191853;23;20378;-63